Time;durP1;ratioP1;P1;durP2;ratioP2;P2;SDS_P1;SDS_P2;PMS_P1;PMS_P2;Temp;Humidity;BMP_temperature;BMP_pressure;BME280_temperature;BME280_humidity;BME280_pressure;Samples;Min_cycle;Max_cycle;Signal;HPM_P1;HPM_P2
2022/12/24 00:01:05;;;;;;;9.18;1.70;;;11.20;99.90;;;;;;5009947;28;20148;-73
2022/12/24 00:03:33;;;;;;;7.57;1.95;;;11.10;99.90;;;;;;5010512;28;20400;-72
2022/12/24 00:06:09;;;;;;;12.60;2.70;;;11.10;99.90;;;;;;5010982;28;20395;-72
2022/12/24 00:08:36;;;;;;;6.00;1.90;;;11.20;99.90;;;;;;5009719;28;20034;-72
2022/12/24 00:11:04;;;;;;;7.65;2.05;;;11.20;99.90;;;;;;5006249;28;20050;-72
2022/12/24 00:13:31;;;;;;;13.93;1.92;;;11.00;99.90;;;;;;5007670;28;20053;-71
2022/12/24 00:15:59;;;;;;;12.32;7.45;;;11.10;99.90;;;;;;5010764;28;20057;-71
2022/12/24 00:18:27;;;;;;;10.27;2.33;;;11.00;99.90;;;;;;5009890;28;20046;-72
2022/12/24 00:20:54;;;;;;;8.07;2.20;;;11.00;99.90;;;;;;4993352;28;20053;-72
2022/12/24 00:23:21;;;;;;;10.77;2.33;;;11.00;99.90;;;;;;5010528;28;20132;-72
2022/12/24 00:25:49;;;;;;;15.23;2.13;;;11.00;99.90;;;;;;5005801;28;20093;-72
2022/12/24 00:28:16;;;;;;;8.45;2.33;;;11.00;99.90;;;;;;5024974;28;20115;-72
2022/12/24 00:30:43;;;;;;;14.68;4.43;;;11.00;99.90;;;;;;5010261;28;20046;-72
2022/12/24 00:33:11;;;;;;;12.20;2.63;;;11.00;99.90;;;;;;5010528;28;20533;-72
2022/12/24 00:35:39;;;;;;;14.60;2.80;;;11.00;99.90;;;;;;5010304;28;20481;-71
2022/12/24 00:38:07;;;;;;;9.93;2.28;;;11.10;99.90;;;;;;4999603;28;20042;-72
2022/12/24 00:40:35;;;;;;;12.65;2.28;;;11.00;99.90;;;;;;5001906;28;20057;-72
2022/12/24 00:43:02;;;;;;;10.88;2.88;;;11.00;99.90;;;;;;5009259;28;20046;-72
2022/12/24 00:45:29;;;;;;;8.45;2.35;;;11.00;99.90;;;;;;5009830;28;20046;-72
2022/12/24 00:47:56;;;;;;;10.38;2.13;;;11.00;99.90;;;;;;5008650;28;20045;-71
2022/12/24 00:50:24;;;;;;;12.77;2.60;;;11.00;99.90;;;;;;5010432;28;20041;-72
2022/12/24 00:52:51;;;;;;;8.75;2.55;;;11.00;99.90;;;;;;5034095;28;20342;-71
2022/12/24 00:55:19;;;;;;;8.57;2.45;;;11.00;99.90;;;;;;5009624;28;20034;-72
2022/12/24 00:57:46;;;;;;;12.00;2.47;;;11.00;99.90;;;;;;5010411;28;20029;-73
2022/12/24 01:00:16;;;;;;;12.48;2.72;;;11.00;99.90;;;;;;5009711;28;20045;-72
2022/12/24 01:02:44;;;;;;;10.40;2.30;;;11.00;99.90;;;;;;5009685;28;20072;-72
2022/12/24 01:05:12;;;;;;;11.65;2.30;;;11.00;99.90;;;;;;5009659;28;20057;-72
2022/12/24 01:07:42;;;;;;;11.48;2.45;;;11.00;99.90;;;;;;5009877;28;20152;-72
2022/12/24 01:10:16;;;;;;;9.18;2.30;;;10.90;99.90;;;;;;5040598;28;20049;-72
2022/12/24 01:12:44;;;;;;;6.55;2.10;;;11.00;99.90;;;;;;5009593;28;20042;-72
2022/12/24 01:15:12;;;;;;;10.00;2.40;;;10.80;99.90;;;;;;5004496;28;20054;-71
2022/12/24 01:17:40;;;;;;;8.95;2.42;;;10.80;99.90;;;;;;5006189;28;20405;-72
2022/12/24 01:20:11;;;;;;;6.60;2.47;;;10.80;99.90;;;;;;5023358;28;20050;-72
2022/12/24 01:22:39;;;;;;;11.75;2.50;;;10.70;99.90;;;;;;5006593;28;20141;-72
2022/12/24 01:25:06;;;;;;;8.90;2.08;;;10.70;99.90;;;;;;4991907;28;20088;-71
2022/12/24 01:27:34;;;;;;;14.30;2.72;;;10.50;99.90;;;;;;5004631;28;20137;-71
2022/12/24 01:30:01;;;;;;;11.90;2.50;;;10.50;99.90;;;;;;5008250;28;20104;-71
2022/12/24 01:32:29;;;;;;;8.60;2.10;;;10.40;99.90;;;;;;5008203;28;20068;-72
2022/12/24 01:34:56;;;;;;;12.65;2.58;;;10.40;99.90;;;;;;5009163;28;20469;-72
2022/12/24 01:37:24;;;;;;;10.65;2.40;;;10.40;99.90;;;;;;5029692;28;20512;-72
2022/12/24 01:43:22;;;;;;;10.43;2.55;;;10.40;99.90;;;;;;5003650;28;20041;-73
2022/12/24 01:45:45;;;;;;;13.32;2.22;;;10.40;99.90;;;;;;5002032;28;20042;-72
2022/12/24 01:48:25;;;;;;;9.27;2.80;;;10.30;99.90;;;;;;5021307;28;20453;-73
2022/12/24 01:50:59;;;;;;;12.10;2.88;;;10.30;99.90;;;;;;5008284;28;20050;-72
2022/12/24 01:53:27;;;;;;;10.07;2.40;;;10.30;99.90;;;;;;5010853;28;20038;-72
2022/12/24 01:55:55;;;;;;;6.68;2.28;;;10.30;99.90;;;;;;5012190;28;20042;-72
2022/12/24 01:58:25;;;;;;;11.98;3.03;;;10.20;99.90;;;;;;5011745;28;20492;-72
2022/12/24 02:00:52;;;;;;;11.32;2.40;;;10.20;99.90;;;;;;5011734;28;20030;-73
2022/12/24 02:03:20;;;;;;;13.10;2.22;;;10.10;99.90;;;;;;5013082;28;20054;-72
2022/12/24 02:05:54;;;;;;;9.52;2.95;;;10.20;99.90;;;;;;5011744;28;20054;-72
2022/12/24 02:08:22;;;;;;;9.05;2.58;;;10.20;99.90;;;;;;5012949;28;20420;-71
2022/12/24 02:10:49;;;;;;;14.30;2.50;;;10.30;99.90;;;;;;5013615;28;20041;-72
2022/12/24 02:13:19;;;;;;;15.50;2.60;;;10.40;99.90;;;;;;5009368;28;20468;-72
2022/12/24 02:16:06;;;;;;;10.00;2.67;;;10.40;99.90;;;;;;5011024;28;20133;-72
2022/12/24 02:18:57;;;;;;;7.78;2.10;;;10.40;99.90;;;;;;5007299;28;20048;-72
2022/12/24 02:22:00;;;;;;;11.18;2.70;;;10.30;99.90;;;;;;5008311;28;20056;-72
2022/12/24 02:24:42;;;;;;;12.38;3.17;;;10.30;99.90;;;;;;5008039;28;20483;-72
2022/12/24 02:27:09;;;;;;;11.55;2.65;;;10.30;99.90;;;;;;5023210;28;20520;-73
2022/12/24 02:29:43;;;;;;;11.57;3.35;;;10.30;99.90;;;;;;4994621;28;20065;-73
2022/12/24 02:32:22;;;;;;;7.70;2.50;;;10.40;99.90;;;;;;5012539;28;20042;-72
2022/12/24 02:35:00;;;;;;;7.07;2.50;;;10.40;99.90;;;;;;5007752;28;20092;-72
2022/12/24 02:37:35;;;;;;;13.20;2.72;;;10.50;99.90;;;;;;4988412;28;20053;-72
2022/12/24 02:40:09;;;;;;;14.68;3.47;;;10.50;99.90;;;;;;5010485;28;20088;-73
2022/12/24 02:42:49;;;;;;;13.38;2.50;;;10.40;99.90;;;;;;5010575;28;20041;-72
2022/12/24 02:45:24;;;;;;;14.60;3.05;;;10.40;99.90;;;;;;5003388;28;20216;-73
2022/12/24 02:47:54;;;;;;;17.10;3.30;;;10.40;99.90;;;;;;5012400;28;20050;-72
2022/12/24 02:50:22;;;;;;;9.02;2.50;;;10.30;99.90;;;;;;5036380;28;20056;-73
2022/12/24 02:52:49;;;;;;;14.05;3.35;;;10.30;99.90;;;;;;5011070;28;20038;-72
2022/12/24 02:55:23;;;;;;;9.13;2.22;;;10.30;99.90;;;;;;4994157;28;20049;-73
2022/12/24 02:57:54;;;;;;;9.65;2.70;;;10.30;99.90;;;;;;5012071;28;20038;-72
2022/12/24 03:00:22;;;;;;;10.32;2.83;;;10.30;99.90;;;;;;5010625;28;20129;-72
2022/12/24 03:02:52;;;;;;;10.98;2.40;;;10.20;99.90;;;;;;5010648;28;20076;-72
2022/12/24 03:05:58;;;;;;;10.98;2.50;;;10.10;99.90;;;;;;5011128;28;20093;-72
2022/12/24 03:08:25;;;;;;;11.48;2.67;;;10.10;99.90;;;;;;5011782;28;20057;-72
2022/12/24 03:11:06;;;;;;;9.27;2.72;;;10.00;99.90;;;;;;5011647;28;20045;-73
2022/12/24 03:13:34;;;;;;;11.35;2.83;;;10.00;99.90;;;;;;5011710;28;20483;-73
2022/12/24 03:16:06;;;;;;;11.43;2.80;;;9.90;99.90;;;;;;5007720;28;20096;-73
2022/12/24 03:18:37;;;;;;;10.45;2.67;;;9.80;99.90;;;;;;5011517;28;20554;-72
2022/12/24 03:21:19;;;;;;;9.50;2.40;;;9.80;99.90;;;;;;5010759;28;20124;-72
2022/12/24 03:23:47;;;;;;;12.05;2.70;;;9.70;99.90;;;;;;5010505;28;20038;-73
2022/12/24 03:26:17;;;;;;;9.68;3.00;;;9.70;99.90;;;;;;4991313;28;20519;-73
2022/12/24 03:28:46;;;;;;;13.88;3.33;;;9.70;99.90;;;;;;5009815;28;20045;-73
2022/12/24 03:31:14;;;;;;;10.88;2.85;;;9.70;99.90;;;;;;5026800;28;20509;-73
2022/12/24 03:33:42;;;;;;;10.20;3.08;;;9.70;99.90;;;;;;5026535;28;20149;-73
2022/12/24 03:36:10;;;;;;;12.30;3.00;;;9.70;99.90;;;;;;5011393;28;20068;-73
2022/12/24 03:38:37;;;;;;;10.35;3.35;;;9.60;99.90;;;;;;5011127;28;20060;-73
2022/12/24 03:41:05;;;;;;;13.73;3.25;;;9.50;99.90;;;;;;5009708;28;20049;-72
2022/12/24 03:43:32;;;;;;;13.13;4.00;;;9.50;99.90;;;;;;4996706;28;20034;-72
2022/12/24 03:46:05;;;;;;;8.70;2.58;;;9.50;99.90;;;;;;5009868;28;20413;-72
2022/12/24 03:48:34;;;;;;;10.43;2.50;;;9.50;99.90;;;;;;5006362;28;20540;-73
2022/12/24 03:51:03;;;;;;;11.05;2.50;;;9.50;99.90;;;;;;5001552;28;20430;-73
2022/12/24 03:53:30;;;;;;;10.55;2.38;;;9.40;99.90;;;;;;5011096;28;20559;-73
2022/12/24 03:55:58;;;;;;;13.10;3.10;;;9.50;99.90;;;;;;5041493;28;20056;-73
2022/12/24 03:58:25;;;;;;;10.65;2.40;;;9.40;99.90;;;;;;5009400;28;20067;-72
2022/12/24 04:00:53;;;;;;;10.82;2.63;;;9.40;99.90;;;;;;5006092;28;20046;-71
2022/12/24 04:03:20;;;;;;;10.73;3.00;;;9.40;99.90;;;;;;5023744;28;20108;-72
2022/12/24 04:06:02;;;;;;;10.73;3.00;;;9.30;99.90;;;;;;5010934;28;20037;-72
2022/12/24 04:08:30;;;;;;;8.65;2.40;;;9.30;99.90;;;;;;5006336;28;20073;-73
2022/12/24 04:10:57;;;;;;;15.88;3.17;;;9.30;99.90;;;;;;5010861;28;20469;-72
2022/12/24 04:13:30;;;;;;;8.45;2.63;;;9.30;99.90;;;;;;4993206;28;20068;-72
2022/12/24 04:16:07;;;;;;;14.90;2.42;;;9.30;99.90;;;;;;5010319;28;20072;-72
2022/12/24 04:18:35;;;;;;;10.40;2.50;;;9.30;99.90;;;;;;5005007;28;20121;-72
2022/12/24 04:21:03;;;;;;;8.45;2.38;;;9.30;99.90;;;;;;5041840;28;20567;-72
2022/12/24 04:23:31;;;;;;;13.35;2.65;;;9.20;99.90;;;;;;5009368;28;20046;-72
2022/12/24 04:26:00;;;;;;;6.47;2.45;;;9.30;99.90;;;;;;4993081;28;20073;-72
2022/12/24 04:28:28;;;;;;;10.75;2.65;;;9.30;99.90;;;;;;5010580;28;20096;-72
2022/12/24 04:31:00;;;;;;;11.45;3.10;;;9.30;99.90;;;;;;5010449;28;20045;-71
2022/12/24 04:33:27;;;;;;;;;;;9.30;99.90;;;;;;4991407;28;20102;-71
2022/12/24 04:35:59;;;;;;;11.30;2.58;;;9.30;99.90;;;;;;4992842;28;19987;-72
2022/12/24 04:38:27;;;;;;;;;;;9.30;99.90;;;;;;5009338;28;20476;-72
2022/12/24 04:41:03;;;;;;;12.20;2.53;;;9.40;99.90;;;;;;5007654;28;19925;-72
2022/12/24 04:43:31;;;;;;;12.25;2.92;;;9.40;99.90;;;;;;5003523;28;20433;-72
2022/12/24 04:46:09;;;;;;;9.98;2.50;;;9.40;99.90;;;;;;5004323;28;20042;-73
2022/12/24 04:48:37;;;;;;;11.25;3.08;;;9.40;99.90;;;;;;4996368;28;20415;-73
2022/12/24 04:51:06;;;;;;;17.73;2.67;;;9.50;99.90;;;;;;5008339;28;20145;-73
2022/12/24 04:53:34;;;;;;;13.43;2.88;;;9.40;99.90;;;;;;5005810;28;20044;-73
2022/12/24 04:56:02;;;;;;;11.10;2.50;;;9.50;99.90;;;;;;5002280;28;20374;-73
2022/12/24 04:58:30;;;;;;;7.85;2.22;;;9.50;99.90;;;;;;5006238;28;20048;-73
2022/12/24 05:01:06;;;;;;;11.20;2.30;;;9.40;99.90;;;;;;5040251;28;20377;-73
2022/12/24 05:03:33;;;;;;;9.63;2.30;;;9.40;99.90;;;;;;5008678;28;20053;-73
2022/12/24 05:06:03;;;;;;;9.80;2.05;;;9.30;99.90;;;;;;5010055;28;20056;-72
2022/12/24 05:08:30;;;;;;;10.82;2.53;;;9.40;99.90;;;;;;5020143;28;20041;-73
2022/12/24 05:10:58;;;;;;;8.85;2.28;;;9.40;99.90;;;;;;4988121;28;20058;-73
2022/12/24 05:13:26;;;;;;;10.35;2.92;;;9.40;99.90;;;;;;5004495;28;20549;-73
2022/12/24 05:16:07;;;;;;;11.48;2.40;;;9.40;99.90;;;;;;5008381;28;20045;-73
2022/12/24 05:18:34;;;;;;;9.98;3.03;;;9.40;99.90;;;;;;4998003;28;20133;-72
2022/12/24 05:21:02;;;;;;;10.50;2.72;;;9.50;99.90;;;;;;5009787;28;20045;-72
2022/12/24 05:26:44;;;;;;;15.48;2.63;;;9.40;99.90;;;;;;5018673;28;20583;-72
2022/12/24 05:29:12;;;;;;;7.72;2.30;;;9.40;99.90;;;;;;5007642;28;20414;-72
2022/12/24 05:31:41;;;;;;;10.95;2.70;;;9.30;99.90;;;;;;5011748;28;20050;-72
2022/12/24 05:34:09;;;;;;;13.07;2.35;;;9.30;99.90;;;;;;5012692;28;20057;-72
2022/12/24 05:36:36;;;;;;;12.20;2.47;;;9.30;99.90;;;;;;5009295;28;20133;-72
2022/12/24 05:39:04;;;;;;;12.95;2.70;;;9.40;99.90;;;;;;5005625;28;20069;-72
2022/12/24 05:41:41;;;;;;;14.38;2.47;;;9.40;99.90;;;;;;5007464;28;20041;-72
2022/12/24 05:44:08;;;;;;;9.82;2.65;;;9.50;99.90;;;;;;5023145;28;20102;-73
2022/12/24 05:46:36;;;;;;;15.60;2.72;;;9.50;99.90;;;;;;5040427;28;20054;-72
2022/12/24 05:49:03;;;;;;;10.95;2.78;;;9.50;99.90;;;;;;5028144;28;20050;-72
2022/12/24 05:51:30;;;;;;;10.52;2.70;;;9.50;99.90;;;;;;5038736;28;20065;-72
2022/12/24 05:53:58;;;;;;;10.00;3.15;;;9.50;99.90;;;;;;5026431;28;20460;-73
2022/12/24 05:56:25;;;;;;;7.57;2.60;;;9.40;99.90;;;;;;5010275;28;20137;-73
2022/12/24 05:58:53;;;;;;;14.45;3.60;;;9.50;99.90;;;;;;5012584;28;20046;-73
2022/12/24 06:01:21;;;;;;;12.02;2.20;;;9.40;99.90;;;;;;5001422;28;20038;-73
2022/12/24 06:03:49;;;;;;;14.98;3.17;;;9.40;99.90;;;;;;5011179;28;20061;-73
2022/12/24 06:06:22;;;;;;;11.75;2.65;;;9.40;99.90;;;;;;5011588;28;20042;-73
2022/12/24 06:08:51;;;;;;;13.85;3.22;;;9.40;99.90;;;;;;5028211;28;20137;-73
2022/12/24 06:11:21;;;;;;;7.82;2.15;;;9.40;99.90;;;;;;4993662;28;20045;-72
2022/12/24 06:13:49;;;;;;;11.20;2.58;;;9.40;99.90;;;;;;5026304;28;20069;-73
2022/12/24 06:16:18;;;;;;;7.32;2.03;;;9.40;99.90;;;;;;5011882;28;20042;-73
2022/12/24 06:18:46;;;;;;;8.88;2.33;;;9.50;99.90;;;;;;5008618;28;20448;-73
2022/12/24 06:21:14;;;;;;;13.48;2.70;;;9.50;99.90;;;;;;5039680;28;20045;-73
2022/12/24 06:23:43;;;;;;;14.07;2.88;;;9.40;99.90;;;;;;5012294;28;20145;-73
2022/12/24 06:26:18;;;;;;;12.73;2.78;;;9.40;99.90;;;;;;5024590;28;20108;-74
2022/12/24 06:28:46;;;;;;;8.85;2.45;;;9.50;99.90;;;;;;5010401;28;20068;-73
2022/12/24 06:31:18;;;;;;;10.70;2.83;;;9.50;99.90;;;;;;5005999;28;20038;-73
2022/12/24 06:33:45;;;;;;;13.02;2.35;;;9.50;99.90;;;;;;5005994;28;20369;-73
2022/12/24 06:36:18;;;;;;;13.90;3.03;;;9.50;99.90;;;;;;5009441;28;20052;-73
2022/12/24 06:38:46;;;;;;;12.98;3.47;;;9.50;99.90;;;;;;4994801;28;20125;-73
2022/12/24 06:41:15;;;;;;;9.48;2.58;;;9.50;99.90;;;;;;5036305;28;20437;-73
2022/12/24 06:43:44;;;;;;;17.17;3.53;;;9.50;99.90;;;;;;5008543;28;20436;-71
2022/12/24 06:46:12;;;;;;;11.75;2.50;;;9.50;99.90;;;;;;5013454;28;20065;-72
2022/12/24 06:48:39;;;;;;;10.60;2.50;;;9.40;99.90;;;;;;5002883;28;20054;-74
2022/12/24 06:51:07;;;;;;;12.23;3.08;;;9.40;99.90;;;;;;4993522;28;20095;-74
2022/12/24 06:53:34;;;;;;;12.02;3.13;;;9.40;99.90;;;;;;5022902;28;20464;-74
2022/12/24 06:56:06;;;;;;;12.65;3.40;;;9.50;99.90;;;;;;5011535;28;20125;-74
2022/12/24 06:58:34;;;;;;;14.70;3.25;;;9.50;99.90;;;;;;5009378;28;20092;-73
2022/12/24 07:01:04;;;;;;;10.60;2.80;;;9.40;99.90;;;;;;5038011;28;20046;-73
2022/12/24 07:03:32;;;;;;;13.07;3.30;;;9.50;99.90;;;;;;5029534;28;20054;-73
2022/12/24 07:05:59;;;;;;;15.70;3.13;;;9.50;99.90;;;;;;5008589;28;20061;-73
2022/12/24 07:08:27;;;;;;;11.90;2.80;;;9.50;99.90;;;;;;5010890;28;20116;-74
2022/12/24 07:10:54;;;;;;;9.77;2.95;;;9.40;99.90;;;;;;5027433;28;20046;-73
2022/12/24 07:13:21;;;;;;;13.88;3.40;;;9.50;99.90;;;;;;5006147;28;20046;-73
2022/12/24 07:16:00;;;;;;;16.65;3.85;;;9.50;99.90;;;;;;5009797;28;20042;-73
2022/12/24 07:18:28;;;;;;;13.63;3.50;;;9.50;99.90;;;;;;5011700;28;20084;-73
2022/12/24 07:20:55;;;;;;;9.95;2.88;;;9.50;99.90;;;;;;5011207;28;20044;-73
2022/12/24 07:23:23;;;;;;;12.27;3.13;;;9.40;99.90;;;;;;5025548;28;20217;-73
2022/12/24 07:25:50;;;;;;;10.80;3.20;;;9.40;99.90;;;;;;5007203;28;20060;-73
2022/12/24 07:28:17;;;;;;;15.10;3.63;;;9.40;99.90;;;;;;4989388;28;20046;-73
2022/12/24 07:30:54;;;;;;;15.23;3.58;;;9.40;99.90;;;;;;5009948;28;20065;-73
2022/12/24 07:33:23;;;;;;;14.20;2.95;;;9.40;99.90;;;;;;5007633;28;20503;-71
2022/12/24 07:36:01;;;;;;;14.57;3.33;;;9.40;99.90;;;;;;5034991;28;20042;-72
2022/12/24 07:38:29;;;;;;;13.10;3.53;;;9.40;99.90;;;;;;5001384;28;20480;-73
2022/12/24 07:40:57;;;;;;;13.40;3.67;;;9.40;99.90;;;;;;5019972;28;20041;-72
2022/12/24 07:43:25;;;;;;;13.25;3.42;;;9.50;99.90;;;;;;5037348;28;20136;-73
2022/12/24 07:45:57;;;;;;;12.35;3.25;;;9.50;99.90;;;;;;5007609;28;20469;-72
2022/12/24 07:48:26;;;;;;;16.63;3.78;;;9.50;99.90;;;;;;5007230;28;20064;-73
2022/12/24 07:50:56;;;;;;;14.88;3.90;;;9.50;99.90;;;;;;5006721;28;20049;-72
2022/12/24 07:53:24;;;;;;;11.52;3.10;;;9.60;99.90;;;;;;5003269;28;20124;-73
2022/12/24 07:55:51;;;;;;;16.40;3.17;;;9.50;99.90;;;;;;4991001;28;20042;-72
2022/12/24 07:58:19;;;;;;;17.92;4.50;;;9.50;99.90;;;;;;4990725;28;20052;-73
2022/12/24 08:00:46;;;;;;;15.82;4.30;;;9.50;99.90;;;;;;5009811;28;20153;-73
2022/12/24 08:03:17;;;;;;;15.00;4.15;;;9.40;99.90;;;;;;5010355;28;20527;-73
2022/12/24 08:05:45;;;;;;;15.00;4.03;;;9.40;99.90;;;;;;5042543;28;20046;-74
2022/12/24 08:08:12;;;;;;;18.92;3.50;;;9.40;99.90;;;;;;5009838;28;20061;-73
2022/12/24 08:10:41;;;;;;;12.27;3.50;;;9.60;99.90;;;;;;5009137;28;20464;-74
2022/12/24 08:13:09;;;;;;;13.00;3.00;;;9.60;99.90;;;;;;5004995;28;20166;-73
2022/12/24 08:15:36;;;;;;;15.48;3.42;;;9.60;99.90;;;;;;5009195;28;20096;-73
2022/12/24 08:18:03;;;;;;;18.75;6.30;;;9.70;99.90;;;;;;5008820;28;20084;-71
2022/12/24 08:20:31;;;;;;;12.98;3.53;;;9.80;99.90;;;;;;5010951;28;20038;-71
2022/12/24 08:22:58;;;;;;;12.88;3.58;;;9.80;99.90;;;;;;5008828;28;20477;-70
2022/12/24 08:25:26;;;;;;;19.70;4.68;;;9.80;99.90;;;;;;5008920;28;20069;-72
2022/12/24 08:27:53;;;;;;;14.50;4.45;;;9.90;99.90;;;;;;5009446;28;20048;-70
2022/12/24 08:30:20;;;;;;;14.43;4.20;;;9.90;99.90;;;;;;5007023;28;20489;-71
2022/12/24 08:32:48;;;;;;;13.75;4.20;;;9.90;99.90;;;;;;5004686;28;20038;-70
2022/12/24 08:35:15;;;;;;;14.75;4.18;;;9.90;99.90;;;;;;5001509;28;20049;-70
2022/12/24 08:37:43;;;;;;;15.63;4.57;;;9.90;99.90;;;;;;5020689;28;20046;-71
2022/12/24 08:40:11;;;;;;;16.90;3.67;;;9.90;99.90;;;;;;5006887;28;20041;-70
2022/12/24 08:42:38;;;;;;;17.40;3.88;;;9.90;99.90;;;;;;5004441;28;20050;-70
2022/12/24 08:45:06;;;;;;;22.48;4.65;;;9.90;99.90;;;;;;5007537;28;20513;-71
2022/12/24 08:47:33;;;;;;;14.52;3.33;;;9.90;99.90;;;;;;5007175;28;20046;-70
2022/12/24 08:50:00;;;;;;;12.60;3.40;;;9.80;99.90;;;;;;5021566;28;20049;-71
2022/12/24 08:52:28;;;;;;;17.52;4.18;;;9.90;99.90;;;;;;5008849;28;20141;-71
2022/12/24 08:54:55;;;;;;;16.48;4.20;;;10.00;99.90;;;;;;5006526;28;20420;-70
2022/12/24 08:57:22;;;;;;;17.63;5.07;;;9.90;99.90;;;;;;5006314;28;20054;-70
2022/12/24 08:59:50;;;;;;;18.90;3.95;;;10.00;99.90;;;;;;5005551;28;20042;-70
2022/12/24 09:02:18;;;;;;;15.32;4.05;;;10.00;99.90;;;;;;4992721;28;20396;-70
2022/12/24 09:04:45;;;;;;;13.85;4.25;;;9.90;99.90;;;;;;5005883;28;20512;-70
2022/12/24 09:07:13;;;;;;;20.83;5.10;;;10.00;99.90;;;;;;5006082;28;20038;-70
2022/12/24 09:09:40;;;;;;;19.45;4.05;;;10.00;99.90;;;;;;5006643;28;20092;-70
2022/12/24 09:12:08;;;;;;;16.70;4.22;;;10.00;99.90;;;;;;5007423;28;20468;-70
2022/12/24 09:14:36;;;;;;;14.55;4.63;;;10.00;99.90;;;;;;4974097;28;20133;-70
2022/12/24 09:17:03;;;;;;;19.48;4.25;;;10.00;99.90;;;;;;5008263;28;20124;-70
2022/12/24 09:19:32;;;;;;;17.77;3.85;;;9.90;99.90;;;;;;5007090;28;20508;-71
2022/12/24 09:21:59;;;;;;;21.65;4.03;;;10.00;99.90;;;;;;5004969;28;20400;-71
2022/12/24 09:24:27;;;;;;;18.20;4.25;;;10.10;99.90;;;;;;5009233;28;20060;-72
2022/12/24 09:26:54;;;;;;;18.55;6.82;;;10.20;99.90;;;;;;5006638;28;20052;-71
2022/12/24 09:29:24;;;;;;;16.58;4.60;;;10.20;99.90;;;;;;5004427;28;20069;-71
2022/12/24 09:31:53;;;;;;;17.40;3.92;;;10.20;99.90;;;;;;5028310;28;20400;-71
2022/12/24 09:34:21;;;;;;;13.65;4.15;;;10.30;99.90;;;;;;5004738;28;20034;-70
2022/12/24 09:36:56;;;;;;;15.93;4.05;;;10.30;99.90;;;;;;4996196;28;20482;-70
2022/12/24 09:39:23;;;;;;;19.75;4.72;;;10.50;99.90;;;;;;5000583;28;20054;-70
2022/12/24 09:42:18;;;;;;;16.38;4.15;;;10.50;99.90;;;;;;4999695;28;20108;-71
2022/12/24 09:44:54;;;;;;;18.88;4.00;;;10.50;99.90;;;;;;5001111;28;20049;-70
2022/12/24 09:48:00;;;;;;;19.85;4.13;;;10.60;99.90;;;;;;5034950;28;20054;-71
2022/12/24 09:50:54;;;;;;;18.88;4.38;;;10.50;99.90;;;;;;5008351;28;20384;-70
2022/12/24 09:53:42;;;;;;;18.20;4.30;;;10.50;99.90;;;;;;5005843;28;20653;-71
2022/12/24 09:56:21;;;;;;;16.33;3.85;;;10.50;99.90;;;;;;5009403;28;20042;-70
2022/12/24 09:59:02;;;;;;;17.60;4.28;;;10.40;99.90;;;;;;5007525;28;20056;-70
2022/12/24 10:01:32;;;;;;;18.98;3.78;;;10.40;99.90;;;;;;5004723;28;20096;-71
2022/12/24 10:04:03;;;;;;;21.77;4.15;;;10.40;99.90;;;;;;5023129;28;20895;-71
2022/12/24 10:06:42;;;;;;;18.25;4.80;;;10.40;99.90;;;;;;5016390;28;20498;-69
2022/12/24 10:09:31;;;;;;;18.27;4.53;;;10.50;99.90;;;;;;5006413;28;20410;-71
2022/12/24 10:12:30;;;;;;;20.13;3.78;;;10.50;99.90;;;;;;5030559;28;20480;-69
2022/12/24 10:15:34;;;;;;;20.45;3.63;;;10.50;99.90;;;;;;4992621;28;20537;-71
2022/12/24 10:18:17;;;;;;;17.92;3.70;;;10.50;99.90;;;;;;4991256;28;20108;-74
2022/12/24 10:20:52;;;;;;;18.95;4.30;;;10.60;99.90;;;;;;5007927;28;20096;-70
2022/12/24 10:23:24;;;;;;;18.48;4.20;;;10.70;99.90;;;;;;5004764;28;20385;-71
2022/12/24 10:26:42;;;;;;;24.90;3.92;;;10.70;99.90;;;;;;4991482;28;20060;-71
2022/12/24 10:29:30;;;;;;;15.55;4.05;;;10.90;99.90;;;;;;5008572;28;20476;-70
2022/12/24 10:32:24;;;;;;;28.13;4.75;;;11.10;99.90;;;;;;5031470;28;20048;-70
2022/12/24 10:34:57;;;;;;;16.80;3.85;;;11.20;99.90;;;;;;4986716;28;20136;-69
2022/12/24 10:37:28;;;;;;;15.82;4.00;;;11.20;99.90;;;;;;5015858;28;20543;-70
2022/12/24 10:39:57;;;;;;;17.10;3.75;;;11.30;99.90;;;;;;5018842;28;20635;-70
2022/12/24 10:42:37;;;;;;;24.50;4.30;;;11.40;99.90;;;;;;5007976;28;20583;-71
2022/12/24 10:45:06;;;;;;;20.42;5.53;;;11.40;99.90;;;;;;5003326;28;20441;-70
2022/12/24 10:47:38;;;;;;;20.77;4.82;;;11.40;99.90;;;;;;5007800;28;20042;-70
2022/12/24 10:50:20;;;;;;;18.05;3.53;;;11.40;99.90;;;;;;5010059;28;20537;-70
2022/12/24 10:52:50;;;;;;;;;;;11.40;99.90;;;;;;5008882;28;20050;-71
2022/12/24 10:55:17;;;;;;;20.88;3.97;;;11.50;99.90;;;;;;5007632;28;19922;-71
2022/12/24 10:57:55;;;;;;;15.23;3.85;;;11.50;99.90;;;;;;4985020;28;20068;-70
2022/12/24 11:00:24;;;;;;;15.88;3.88;;;11.50;99.90;;;;;;4992291;28;20056;-71
2022/12/24 11:03:28;;;;;;;16.63;3.83;;;11.50;99.90;;;;;;4990526;28;20054;-71
2022/12/24 11:06:20;;;;;;;15.52;4.40;;;11.60;99.90;;;;;;5000034;28;20045;-71
2022/12/24 11:08:47;;;;;;;19.85;4.43;;;11.60;99.90;;;;;;5011305;28;20060;-70
2022/12/24 11:11:19;;;;;;;15.57;3.78;;;11.50;99.90;;;;;;5003873;28;20217;-70
2022/12/24 11:13:49;;;;;;;18.23;3.78;;;11.50;99.90;;;;;;5007219;28;20042;-70
2022/12/24 11:16:37;;;;;;;15.35;3.70;;;11.50;99.90;;;;;;5007915;28;20518;-71
2022/12/24 11:19:14;;;;;;;21.08;4.00;;;11.50;99.90;;;;;;5025220;28;20045;-71
2022/12/24 11:21:42;;;;;;;14.38;3.90;;;11.60;99.90;;;;;;5006266;28;20046;-71
2022/12/24 11:24:12;;;;;;;16.88;4.68;;;11.70;99.90;;;;;;5008103;28;20486;-71
2022/12/24 11:26:42;;;;;;;17.60;3.83;;;11.80;99.90;;;;;;5000078;28;20064;-71
2022/12/24 11:29:24;;;;;;;14.48;3.35;;;12.00;99.90;;;;;;5014816;28;20041;-71
2022/12/24 11:32:08;;;;;;;14.85;3.78;;;12.30;99.90;;;;;;5022375;28;20073;-71
2022/12/24 11:34:36;;;;;;;15.85;3.90;;;12.70;99.90;;;;;;4992653;28;20916;-70
2022/12/24 11:37:23;;;;;;;15.77;3.35;;;13.80;99.90;;;;;;5007989;28;20057;-70
2022/12/24 11:39:53;;;;;;;22.02;3.85;;;14.20;99.90;;;;;;5007260;28;20044;-70
2022/12/24 11:42:38;;;;;;;15.30;4.10;;;13.50;99.90;;;;;;5011043;28;20125;-73
2022/12/24 11:45:19;;;;;;;17.60;3.70;;;13.30;99.90;;;;;;4998594;28;20053;-72
2022/12/24 11:47:46;;;;;;;11.68;3.33;;;12.80;99.90;;;;;;5009860;28;20145;-70
2022/12/24 11:50:37;;;;;;;15.30;3.13;;;12.40;99.90;;;;;;5040337;28;20052;-70
2022/12/24 11:53:16;;;;;;;14.75;3.92;;;12.30;99.90;;;;;;5010096;28;20493;-69
2022/12/24 11:55:49;;;;;;;17.25;4.38;;;12.30;99.90;;;;;;4990854;28;20042;-71
2022/12/24 11:58:36;;;;;;;14.27;3.85;;;12.20;99.90;;;;;;4993936;28;20509;-71
2022/12/24 12:01:12;;;;;;;15.93;4.22;;;12.10;99.90;;;;;;5009866;28;20132;-70
2022/12/24 12:03:47;;;;;;;13.85;4.50;;;12.10;99.90;;;;;;5010641;28;20038;-70
2022/12/24 12:06:34;;;;;;;16.95;4.13;;;12.10;99.90;;;;;;5011163;28;20549;-70
2022/12/24 12:09:25;;;;;;;14.77;3.53;;;12.00;99.90;;;;;;5032346;28;20579;-71
2022/12/24 12:11:59;;;;;;;13.03;3.67;;;11.90;99.90;;;;;;5018564;28;20042;-70
2022/12/24 12:14:34;;;;;;;18.48;3.78;;;11.80;99.90;;;;;;5022569;28;20121;-71
2022/12/24 12:17:41;;;;;;;21.17;3.95;;;11.90;99.90;;;;;;5008039;28;20053;-71
2022/12/24 12:20:31;;;;;;;17.60;4.25;;;11.90;99.90;;;;;;5004574;28;20058;-72
2022/12/24 12:23:40;;;;;;;18.35;5.13;;;11.90;99.90;;;;;;5021446;28;20560;-72
2022/12/24 12:26:14;;;;;;;19.58;4.78;;;12.00;99.90;;;;;;4991132;28;20050;-71
2022/12/24 12:28:56;;;;;;;16.38;3.92;;;12.00;99.90;;;;;;5011849;28;20479;-71
2022/12/24 12:31:30;;;;;;;23.42;4.40;;;12.00;99.90;;;;;;5008389;28;20488;-71
2022/12/24 12:33:58;;;;;;;13.10;3.30;;;12.00;99.90;;;;;;5010200;28;20077;-71
2022/12/24 12:36:47;;;;;;;15.82;4.22;;;12.00;99.90;;;;;;5004889;28;20038;-70
2022/12/24 12:39:14;;;;;;;14.88;4.03;;;12.00;99.90;;;;;;4994810;28;20038;-71
2022/12/24 12:42:17;;;;;;;14.75;3.58;;;12.00;99.90;;;;;;4967947;28;20592;-70
2022/12/24 12:44:53;;;;;;;19.10;5.75;;;12.00;99.90;;;;;;5011086;28;20585;-71
2022/12/24 12:47:58;;;;;;;22.08;5.05;;;12.10;99.90;;;;;;5008694;28;20045;-70
2022/12/24 12:50:25;;;;;;;17.20;4.50;;;12.10;99.90;;;;;;5025858;28;20042;-70
2022/12/24 12:53:23;;;;;;;17.10;4.68;;;12.70;99.90;;;;;;5010702;28;20513;-70
2022/12/24 12:56:13;;;;;;;14.35;4.07;;;13.20;99.90;;;;;;5025647;28;20495;-71
2022/12/24 12:59:03;;;;;;;15.23;4.20;;;14.40;99.90;;;;;;5005148;28;20049;-71
2022/12/24 13:02:11;;;;;;;17.98;4.00;;;15.10;99.90;;;;;;5008482;28;20503;-72
2022/12/24 13:04:41;;;;;;;23.83;4.40;;;15.00;99.90;;;;;;5024957;28;20119;-71
2022/12/24 13:07:36;;;;;;;18.27;4.22;;;14.70;99.90;;;;;;4989986;28;20151;-72
2022/12/24 13:10:32;;;;;;;17.48;4.88;;;14.20;99.90;;;;;;5022917;28;20082;-70
2022/12/24 13:13:25;;;;;;;15.63;4.10;;;13.70;99.90;;;;;;5007522;28;20395;-72
2022/12/24 13:16:16;;;;;;;18.83;4.53;;;13.20;99.90;;;;;;5018522;28;20088;-70
2022/12/24 13:18:52;;;;;;;14.35;3.60;;;12.80;99.90;;;;;;5004568;28;20049;-73